Terminal Aerodrome Forecast
Issued by NWS

Home | Current Version | Previous Version | Text Only | Print | Product List | Glossary On
Versions: 1 2 3 4 5 6 7 8 9 10 11 12 13 14 15 16 17 18 19 20 21 22 23 24
077
FTUS46 KLOX 311317 AAA
TAFLGB
TAF AMD
KLGB 311317Z 3113/0112 VRB05KT P6SM OVC010
     FM311800 27007KT P6SM SCT015
     FM312200 26012KT P6SM SCT015
     FM010400 26007KT P6SM BKN015
     FM010900 VRB05KT P6SM OVC009=

USA.gov is the U.S. government's official web portal to all federal, state and local government web resources and services.